Time;durP1;ratioP1;P1;durP2;ratioP2;P2;SDS_P1;SDS_P2;PMS_P1;PMS_P2;Temp;Humidity;BMP_temperature;BMP_pressure;BME280_temperature;BME280_humidity;BME280_pressure;Samples;Min_cycle;Max_cycle;Signal;HPM_P1;HPM_P2
2023/06/06 00:00:10;;;;;;;4.25;2.40;;;18.30;78.50;;;;;;4998114;28;20033;-69
2023/06/06 00:02:58;;;;;;;7.20;2.80;;;18.30;78.60;;;;;;4998184;28;20042;-69
2023/06/06 00:05:29;;;;;;;3.53;2.45;;;18.30;78.60;;;;;;4996268;28;20046;-69
2023/06/06 00:07:56;;;;;;;3.58;2.60;;;18.30;78.70;;;;;;4996473;28;20037;-69
2023/06/06 00:10:22;;;;;;;4.05;2.40;;;18.40;78.70;;;;;;4996406;28;20069;-69
2023/06/06 00:12:51;;;;;;;4.90;2.90;;;18.30;78.70;;;;;;4996328;28;20448;-69
2023/06/06 00:15:17;;;;;;;4.82;2.97;;;18.30;78.70;;;;;;4995969;28;20068;-69
2023/06/06 00:17:44;;;;;;;4.55;3.15;;;18.40;78.70;;;;;;4996373;28;20041;-69
2023/06/06 00:20:12;;;;;;;5.85;3.47;;;18.40;78.60;;;;;;4995630;28;20031;-69
2023/06/06 00:22:39;;;;;;;5.72;3.33;;;18.40;78.60;;;;;;4996113;28;20037;-69
2023/06/06 00:25:06;;;;;;;4.63;3.30;;;18.30;78.60;;;;;;4996035;28;20042;-69
2023/06/06 00:27:33;;;;;;;5.50;3.45;;;18.40;78.70;;;;;;4996127;28;20126;-69
2023/06/06 00:29:59;;;;;;;5.35;2.97;;;18.40;78.70;;;;;;4995857;28;20093;-69
2023/06/06 00:32:26;;;;;;;6.05;3.38;;;18.40;78.70;;;;;;4995960;28;20037;-69
2023/06/06 00:34:53;;;;;;;3.97;2.97;;;18.40;78.70;;;;;;4979748;28;20030;-69
2023/06/06 00:37:19;;;;;;;7.32;3.90;;;18.40;78.70;;;;;;4997512;28;20054;-69
2023/06/06 00:39:45;;;;;;;6.10;3.28;;;18.40;78.80;;;;;;4997639;28;20084;-69
2023/06/06 00:42:11;;;;;;;6.38;3.20;;;18.30;78.80;;;;;;4997452;28;20114;-69
2023/06/06 00:44:37;;;;;;;4.50;2.80;;;18.30;78.80;;;;;;4997290;28;20073;-69
2023/06/06 00:47:03;;;;;;;4.38;2.65;;;18.30;78.80;;;;;;4997530;28;20352;-69
2023/06/06 00:49:30;;;;;;;4.95;2.65;;;18.30;78.80;;;;;;4997477;28;20034;-69
2023/06/06 00:51:59;;;;;;;3.50;2.53;;;18.30;78.70;;;;;;4997460;28;20026;-69
2023/06/06 00:54:25;;;;;;;4.70;2.60;;;18.30;78.70;;;;;;4997245;28;20515;-68
2023/06/06 00:56:53;;;;;;;4.40;2.67;;;18.30;78.80;;;;;;4997357;28;20214;-69
2023/06/06 00:59:23;;;;;;;5.55;2.50;;;18.30;78.90;;;;;;4996955;28;20113;-69
2023/06/06 01:01:49;;;;;;;3.13;2.53;;;18.30;78.90;;;;;;4997446;28;20113;-69
2023/06/06 01:04:17;;;;;;;3.00;2.50;;;18.30;79.00;;;;;;4996827;28;20518;-69
2023/06/06 01:06:43;;;;;;;4.57;2.35;;;18.20;79.00;;;;;;4997075;28;20041;-69
2023/06/06 01:09:11;;;;;;;3.67;2.85;;;18.20;78.90;;;;;;4997146;28;20030;-69
2023/06/06 01:12:07;;;;;;;5.35;2.58;;;18.20;78.90;;;;;;4997089;28;20094;-69
2023/06/06 01:14:56;;;;;;;3.88;2.30;;;18.20;79.00;;;;;;4992231;28;20096;-69
2023/06/06 01:17:25;;;;;;;2.38;2.17;;;18.20;78.90;;;;;;4997009;28;20026;-69
2023/06/06 01:19:56;;;;;;;6.85;2.10;;;18.20;78.90;;;;;;4996752;28;20034;-69
2023/06/06 01:22:23;;;;;;;4.80;2.55;;;18.20;78.90;;;;;;4995860;28;20027;-69
2023/06/06 01:24:53;;;;;;;2.67;2.13;;;18.20;78.80;;;;;;4995701;28;20027;-69
2023/06/06 01:27:21;;;;;;;4.18;2.50;;;18.20;78.80;;;;;;4996493;28;20022;-69
2023/06/06 01:29:50;;;;;;;5.53;2.78;;;18.20;78.80;;;;;;4996924;28;20048;-69
2023/06/06 01:32:35;;;;;;;2.80;2.20;;;18.20;78.90;;;;;;4995803;28;20030;-69
2023/06/06 01:35:17;;;;;;;3.90;2.30;;;18.10;78.80;;;;;;4996543;28;20468;-69
2023/06/06 01:38:07;;;;;;;4.00;2.47;;;18.20;78.80;;;;;;4996693;28;20034;-69
2023/06/06 01:40:33;;;;;;;2.85;2.20;;;18.20;78.80;;;;;;4996562;28;20034;-69
2023/06/06 01:43:03;;;;;;;4.13;2.60;;;18.10;78.80;;;;;;4996044;28;20026;-69
2023/06/06 01:45:31;;;;;;;3.33;2.75;;;18.10;78.80;;;;;;4995473;28;20049;-69
2023/06/06 01:47:58;;;;;;;2.38;2.10;;;18.10;78.90;;;;;;4996326;28;20029;-69
2023/06/06 01:50:24;;;;;;;3.15;2.17;;;18.10;78.90;;;;;;4996310;28;20031;-69
2023/06/06 01:52:54;;;;;;;5.25;2.40;;;18.00;78.90;;;;;;4996474;28;20022;-69
2023/06/06 01:55:21;;;;;;;4.18;2.53;;;18.00;78.90;;;;;;4995951;28;20037;-68
2023/06/06 01:57:47;;;;;;;3.40;2.30;;;18.00;78.90;;;;;;4996142;28;20113;-69
2023/06/06 02:00:13;;;;;;;2.60;2.25;;;18.00;79.00;;;;;;4996350;28;20376;-69
2023/06/06 02:02:39;;;;;;;5.13;2.38;;;18.00;79.10;;;;;;4996209;28;20037;-69
2023/06/06 02:05:05;;;;;;;3.30;2.30;;;17.90;79.10;;;;;;4995856;28;20531;-68
2023/06/06 02:07:34;;;;;;;2.70;2.17;;;17.90;79.20;;;;;;4995985;28;20011;-69
2023/06/06 02:10:04;;;;;;;2.53;2.20;;;18.00;79.20;;;;;;4995932;28;20053;-69
2023/06/06 02:12:31;;;;;;;3.10;2.22;;;17.90;79.20;;;;;;4995914;28;20460;-69
2023/06/06 02:14:58;;;;;;;4.32;2.53;;;17.90;79.30;;;;;;4995716;28;20046;-68
2023/06/06 02:17:25;;;;;;;3.78;2.63;;;17.90;79.20;;;;;;4995760;28;20452;-69
2023/06/06 02:19:50;;;;;;;4.45;2.25;;;17.90;79.30;;;;;;4995847;28;20030;-69
2023/06/06 02:22:16;;;;;;;4.72;2.90;;;17.90;79.40;;;;;;4995719;28;20022;-69
2023/06/06 02:24:43;;;;;;;4.13;2.58;;;17.90;79.40;;;;;;4995412;28;20054;-69
2023/06/06 02:27:09;;;;;;;3.90;2.70;;;17.90;79.40;;;;;;4995682;28;20033;-69
2023/06/06 02:29:36;;;;;;;5.10;3.10;;;17.90;79.40;;;;;;4995945;28;20142;-69
2023/06/06 02:32:06;;;;;;;5.13;3.15;;;17.90;79.50;;;;;;4995538;28;20030;-69
2023/06/06 02:34:32;;;;;;;4.82;3.08;;;17.90;79.40;;;;;;4995499;28;20058;-69
2023/06/06 02:36:59;;;;;;;6.53;3.20;;;17.80;79.50;;;;;;4995518;28;20105;-69
2023/06/06 02:39:25;;;;;;;5.13;3.05;;;17.80;79.50;;;;;;4995169;28;20447;-69
2023/06/06 02:41:51;;;;;;;4.03;2.92;;;17.80;79.50;;;;;;4995404;28;20037;-68
2023/06/06 02:44:19;;;;;;;3.58;2.67;;;17.80;79.50;;;;;;4995185;28;20026;-69
2023/06/06 02:46:46;;;;;;;4.65;3.20;;;17.80;79.50;;;;;;4995329;28;20041;-69
2023/06/06 02:49:12;;;;;;;4.53;3.10;;;17.80;79.60;;;;;;4995456;28;20026;-69
2023/06/06 02:51:38;;;;;;;7.00;3.25;;;17.70;79.60;;;;;;4995664;28;20026;-68
2023/06/06 02:54:04;;;;;;;4.70;3.38;;;17.70;79.60;;;;;;4995066;28;20467;-69
2023/06/06 02:56:30;;;;;;;5.38;3.35;;;17.70;79.60;;;;;;4994354;28;20085;-69
2023/06/06 02:58:55;;;;;;;5.35;3.25;;;17.60;79.70;;;;;;4995367;28;20359;-69
2023/06/06 03:01:22;;;;;;;5.45;3.20;;;17.60;79.80;;;;;;4995265;28;20038;-69
2023/06/06 03:03:48;;;;;;;4.80;3.45;;;17.60;79.90;;;;;;4995182;28;20043;-69
2023/06/06 03:06:18;;;;;;;4.53;3.40;;;17.50;79.90;;;;;;4995464;28;20026;-69
2023/06/06 03:08:44;;;;;;;6.50;3.65;;;17.60;80.00;;;;;;4995215;28;20092;-69
2023/06/06 03:11:11;;;;;;;4.60;3.20;;;17.50;80.10;;;;;;4995450;28;20157;-69
2023/06/06 03:13:37;;;;;;;5.28;3.15;;;17.50;80.00;;;;;;4994124;28;20030;-69
2023/06/06 03:16:04;;;;;;;3.95;3.20;;;17.40;80.00;;;;;;4995427;28;20081;-69
2023/06/06 03:18:30;;;;;;;5.35;3.00;;;17.50;80.10;;;;;;4995176;28;20042;-69
2023/06/06 03:20:56;;;;;;;5.18;3.10;;;17.40;80.20;;;;;;4995030;28;20022;-68
2023/06/06 03:23:22;;;;;;;4.57;3.53;;;17.40;80.20;;;;;;4994894;28;20102;-68
2023/06/06 03:25:51;;;;;;;5.03;3.20;;;17.40;80.20;;;;;;4995084;28;20105;-69
2023/06/06 03:28:20;;;;;;;3.65;3.15;;;17.40;80.30;;;;;;4994970;28;20061;-69
2023/06/06 03:30:46;;;;;;;5.43;3.40;;;17.40;80.30;;;;;;4994997;28;20018;-69
2023/06/06 03:33:13;;;;;;;6.22;3.40;;;17.40;80.40;;;;;;4995035;28;20036;-69
2023/06/06 03:35:39;;;;;;;4.20;3.20;;;17.40;80.50;;;;;;4995227;28;20116;-69
2023/06/06 03:38:05;;;;;;;3.80;2.90;;;17.40;80.50;;;;;;4994787;28;20045;-68
2023/06/06 03:40:31;;;;;;;4.65;3.08;;;17.40;80.50;;;;;;4994933;28;20019;-69
2023/06/06 03:42:57;;;;;;;6.35;3.60;;;17.50;80.50;;;;;;4994770;28;20370;-69
2023/06/06 03:45:23;;;;;;;4.75;3.25;;;17.50;80.60;;;;;;4994867;28;20409;-69
2023/06/06 03:47:50;;;;;;;6.07;3.22;;;17.50;80.60;;;;;;4994960;28;20022;-69
2023/06/06 03:50:17;;;;;;;4.55;3.30;;;17.50;80.50;;;;;;4994937;28;20105;-68
2023/06/06 03:52:46;;;;;;;5.35;3.22;;;17.50;80.50;;;;;;4994589;28;20034;-69
2023/06/06 03:55:13;;;;;;;5.22;3.30;;;17.60;80.50;;;;;;4996287;28;20022;-69
2023/06/06 03:57:39;;;;;;;5.60;3.90;;;17.60;80.50;;;;;;4998402;28;20046;-69
2023/06/06 04:00:10;;;;;;;5.05;3.75;;;17.60;80.50;;;;;;4998354;28;20305;-69
2023/06/06 04:03:00;;;;;;;5.28;3.55;;;17.70;80.50;;;;;;4998245;28;20038;-69
2023/06/06 04:05:26;;;;;;;6.38;3.50;;;17.70;80.40;;;;;;4996249;28;20108;-68
2023/06/06 04:07:52;;;;;;;7.30;4.18;;;17.70;80.40;;;;;;4996293;28;20046;-69
2023/06/06 04:10:19;;;;;;;6.53;4.10;;;17.80;80.30;;;;;;4996570;28;20369;-69
2023/06/06 04:12:47;;;;;;;4.63;3.45;;;17.80;80.40;;;;;;4996338;28;20039;-69
2023/06/06 04:15:13;;;;;;;4.68;3.35;;;17.80;80.30;;;;;;4996397;28;20069;-68
2023/06/06 04:17:39;;;;;;;7.65;4.30;;;17.90;80.30;;;;;;4996354;28;20066;-69
2023/06/06 04:20:08;;;;;;;5.38;3.70;;;17.90;80.30;;;;;;4996283;28;20077;-69
2023/06/06 04:22:35;;;;;;;5.13;3.58;;;18.00;80.30;;;;;;4995838;28;20069;-69
2023/06/06 04:25:01;;;;;;;6.10;3.90;;;17.90;80.20;;;;;;4996126;28;20034;-69
2023/06/06 04:27:27;;;;;;;5.10;3.80;;;18.00;80.30;;;;;;4996127;28;20133;-69
2023/06/06 04:29:52;;;;;;;4.85;3.70;;;18.00;80.30;;;;;;4996053;28;20034;-68
2023/06/06 04:32:19;;;;;;;5.68;3.85;;;18.10;80.10;;;;;;4996024;28;20034;-69
2023/06/06 04:34:45;;;;;;;6.78;3.67;;;18.20;80.10;;;;;;4995621;28;20109;-69
2023/06/06 04:37:13;;;;;;;4.97;3.80;;;18.30;80.00;;;;;;4997309;28;20452;-68
2023/06/06 04:39:40;;;;;;;5.28;4.00;;;18.40;79.90;;;;;;4997825;28;20027;-69
2023/06/06 04:42:07;;;;;;;5.65;3.60;;;18.40;79.70;;;;;;4997454;28;20041;-68
2023/06/06 04:44:34;;;;;;;6.82;3.40;;;18.60;79.60;;;;;;4997434;28;20026;-69
2023/06/06 04:47:03;;;;;;;7.25;4.20;;;18.60;79.50;;;;;;4997468;28;20041;-69
2023/06/06 04:49:35;;;;;;;5.22;4.25;;;18.80;79.40;;;;;;4997157;28;20106;-68
2023/06/06 04:52:19;;;;;;;7.65;4.10;;;18.90;79.10;;;;;;4997478;28;20085;-69
2023/06/06 04:54:45;;;;;;;;;;;19.10;78.90;;;;;;4996818;28;20034;-69
2023/06/06 04:57:15;;;;;;;6.20;3.97;;;19.30;79.40;;;;;;4997328;28;19921;-68
2023/06/06 04:59:43;;;;;;;5.85;3.83;;;19.50;78.60;;;;;;4997384;28;20058;-68
2023/06/06 05:02:09;;;;;;;6.63;4.00;;;19.70;77.90;;;;;;4997416;28;20030;-68
2023/06/06 05:04:35;;;;;;;6.72;4.13;;;19.90;77.60;;;;;;4996775;28;20050;-68
2023/06/06 05:07:01;;;;;;;7.45;4.53;;;19.90;77.40;;;;;;4997014;28;20477;-68
2023/06/06 05:09:27;;;;;;;6.80;3.72;;;20.10;77.00;;;;;;4997159;28;20025;-68
2023/06/06 05:11:54;;;;;;;6.05;4.05;;;20.20;76.80;;;;;;4997085;28;20356;-68
2023/06/06 05:14:23;;;;;;;7.20;4.60;;;20.30;76.50;;;;;;4996933;28;20042;-68
2023/06/06 05:16:51;;;;;;;7.88;5.25;;;20.40;76.20;;;;;;4997011;28;20034;-68
2023/06/06 05:19:17;;;;;;;6.43;4.97;;;20.40;76.10;;;;;;4995771;28;20062;-68
2023/06/06 05:21:43;;;;;;;7.47;5.13;;;20.50;76.00;;;;;;4996791;28;20073;-68
2023/06/06 05:24:09;;;;;;;8.95;5.72;;;20.60;75.80;;;;;;4996912;28;20451;-68
2023/06/06 05:26:35;;;;;;;7.88;5.55;;;20.70;75.50;;;;;;4996901;28;20023;-68
2023/06/06 05:29:02;;;;;;;8.57;5.82;;;20.80;75.30;;;;;;4996741;28;20033;-68
2023/06/06 05:31:33;;;;;;;8.57;6.15;;;20.80;75.10;;;;;;4996755;28;20022;-65
2023/06/06 05:34:00;;;;;;;9.77;5.97;;;20.70;74.80;;;;;;4996379;28;20112;-61
2023/06/06 05:36:26;;;;;;;8.32;5.43;;;20.60;74.80;;;;;;4995623;28;20062;-63
2023/06/06 05:38:53;;;;;;;11.45;4.75;;;20.50;74.90;;;;;;4996484;28;20084;-63
2023/06/06 05:41:20;;;;;;;7.25;4.75;;;20.40;75.10;;;;;;4996465;28;20027;-63
2023/06/06 05:43:53;;;;;;;8.88;5.85;;;20.40;75.20;;;;;;4996700;28;20033;-63
2023/06/06 05:46:19;;;;;;;7.37;5.17;;;20.30;75.30;;;;;;4996512;28;20022;-63
2023/06/06 05:48:45;;;;;;;7.70;5.35;;;20.30;75.50;;;;;;4996064;28;20277;-63
2023/06/06 05:51:11;;;;;;;8.52;5.05;;;20.20;75.50;;;;;;4996287;28;20026;-63
2023/06/06 05:53:44;;;;;;;8.05;4.75;;;20.10;75.60;;;;;;4996188;28;20037;-63
2023/06/06 05:56:14;;;;;;;9.52;5.65;;;20.20;75.70;;;;;;4996558;28;20062;-63
2023/06/06 05:58:40;;;;;;;10.18;6.00;;;20.10;75.80;;;;;;4996434;28;20038;-63
2023/06/06 06:01:08;;;;;;;6.35;4.28;;;20.20;75.70;;;;;;4995042;28;20026;-63
2023/06/06 06:03:38;;;;;;;6.25;4.35;;;20.20;75.60;;;;;;4995721;28;20063;-63
2023/06/06 06:06:05;;;;;;;9.13;5.38;;;20.10;75.50;;;;;;4996015;28;20030;-63
2023/06/06 06:08:34;;;;;;;7.85;4.57;;;20.20;75.50;;;;;;4995992;28;20432;-64
2023/06/06 06:11:00;;;;;;;8.13;4.57;;;20.20;75.50;;;;;;4996232;28;20392;-63
2023/06/06 06:13:26;;;;;;;6.03;3.50;;;20.20;75.30;;;;;;4995901;28;20042;-63
2023/06/06 06:15:52;;;;;;;4.68;3.10;;;20.40;75.30;;;;;;4995987;28;20069;-63
2023/06/06 06:18:18;;;;;;;3.78;2.97;;;20.50;75.20;;;;;;4995315;28;20102;-63
2023/06/06 06:20:46;;;;;;;3.85;2.80;;;20.70;74.80;;;;;;4995846;28;20034;-63
2023/06/06 06:23:12;;;;;;;4.18;2.65;;;20.80;74.50;;;;;;4995662;28;20026;-63
2023/06/06 06:25:38;;;;;;;3.30;2.50;;;20.90;74.20;;;;;;4995744;28;20022;-64
2023/06/06 06:28:04;;;;;;;3.25;2.10;;;20.90;73.40;;;;;;4996015;28;20042;-63
2023/06/06 06:30:30;;;;;;;2.72;2.10;;;21.10;73.40;;;;;;4995654;28;20041;-63
2023/06/06 06:32:56;;;;;;;2.33;1.90;;;21.20;73.00;;;;;;4995267;28;20018;-63
2023/06/06 06:35:22;;;;;;;2.47;2.22;;;21.30;72.80;;;;;;4995732;28;20022;-63
2023/06/06 06:37:48;;;;;;;3.65;2.20;;;21.40;72.60;;;;;;4995586;28;20355;-63
2023/06/06 06:40:15;;;;;;;2.95;2.15;;;21.50;72.30;;;;;;4995837;28;20042;-63
2023/06/06 06:42:43;;;;;;;2.58;2.20;;;21.70;72.10;;;;;;4995421;28;20530;-63
2023/06/06 06:45:13;;;;;;;6.25;2.35;;;21.80;71.60;;;;;;4995377;28;20351;-63
2023/06/06 06:47:40;;;;;;;2.65;2.20;;;21.90;71.30;;;;;;4995502;28;20022;-63
2023/06/06 06:50:07;;;;;;;2.83;2.08;;;22.00;71.10;;;;;;4995443;28;20463;-63
2023/06/06 06:52:35;;;;;;;3.63;2.17;;;22.20;70.80;;;;;;4995471;28;20026;-63
2023/06/06 06:55:04;;;;;;;2.47;1.90;;;22.30;70.70;;;;;;4995598;28;20030;-63
2023/06/06 06:57:30;;;;;;;5.03;2.00;;;22.50;70.40;;;;;;4978353;28;20526;-63
2023/06/06 06:59:56;;;;;;;3.30;2.15;;;22.80;70.10;;;;;;4995110;28;20109;-63
2023/06/06 07:02:23;;;;;;;3.90;2.33;;;23.00;69.60;;;;;;4995372;28;20065;-64
2023/06/06 07:04:50;;;;;;;2.60;2.17;;;23.40;69.00;;;;;;4995057;28;20061;-63
2023/06/06 07:07:16;;;;;;;3.70;1.90;;;23.60;68.30;;;;;;4995267;28;20073;-64
2023/06/06 07:09:45;;;;;;;2.30;2.10;;;23.90;67.80;;;;;;4995204;28;20038;-64
2023/06/06 07:12:12;;;;;;;2.65;2.30;;;24.00;67.20;;;;;;4995177;28;20034;-64
2023/06/06 07:14:39;;;;;;;3.58;2.05;;;24.20;66.80;;;;;;4994873;28;20432;-64
2023/06/06 07:17:07;;;;;;;3.80;2.30;;;24.40;66.30;;;;;;4995229;28;20109;-64
2023/06/06 07:19:36;;;;;;;3.22;2.30;;;24.70;65.90;;;;;;4995053;28;20373;-64
2023/06/06 07:22:04;;;;;;;2.92;2.10;;;24.90;64.80;;;;;;4995190;28;20030;-64
2023/06/06 07:24:30;;;;;;;3.00;2.25;;;25.10;64.50;;;;;;4995147;28;20073;-64
2023/06/06 07:26:57;;;;;;;3.45;2.40;;;25.20;64.30;;;;;;4995169;28;20022;-64
2023/06/06 07:29:23;;;;;;;3.47;2.40;;;25.40;64.00;;;;;;4995248;28;20097;-64
2023/06/06 07:31:50;;;;;;;2.85;2.40;;;25.60;63.80;;;;;;4998957;28;20035;-64
2023/06/06 07:34:16;;;;;;;3.50;2.30;;;25.80;63.30;;;;;;4981765;28;20068;-64
2023/06/06 07:36:41;;;;;;;3.40;2.60;;;25.90;62.90;;;;;;4998908;28;20063;-64
2023/06/06 07:39:08;;;;;;;2.35;2.10;;;26.00;62.60;;;;;;4998846;28;20034;-64
2023/06/06 07:41:34;;;;;;;3.08;2.60;;;26.10;62.40;;;;;;4998722;28;20026;-64
2023/06/06 07:44:01;;;;;;;2.63;2.28;;;26.20;61.70;;;;;;4998323;28;20076;-64
2023/06/06 07:46:27;;;;;;;3.28;2.50;;;26.30;61.50;;;;;;4998798;28;20054;-64
2023/06/06 07:48:53;;;;;;;3.70;2.45;;;26.40;61.20;;;;;;4998739;28;20049;-64
2023/06/06 07:51:19;;;;;;;2.78;2.55;;;26.60;60.90;;;;;;4998834;28;20041;-64
2023/06/06 07:53:45;;;;;;;2.58;2.30;;;26.70;60.50;;;;;;4998773;28;20057;-64
2023/06/06 07:56:14;;;;;;;3.10;2.42;;;26.90;60.20;;;;;;4998821;28;20030;-64
2023/06/06 07:58:42;;;;;;;3.55;2.78;;;26.90;60.00;;;;;;4998516;28;20014;-64
2023/06/06 08:01:11;;;;;;;3.70;2.80;;;26.90;59.30;;;;;;4998355;28;20430;-64
2023/06/06 08:03:37;;;;;;;3.60;2.47;;;27.00;59.30;;;;;;4998168;28;20105;-64
2023/06/06 08:06:03;;;;;;;2.97;1.92;;;27.00;59.50;;;;;;4998360;28;20026;-64
2023/06/06 08:08:30;;;;;;;2.47;2.25;;;27.00;59.40;;;;;;4998429;28;20057;-64
2023/06/06 08:10:56;;;;;;;3.03;2.45;;;27.20;59.40;;;;;;4998521;28;20030;-64
2023/06/06 08:13:22;;;;;;;2.50;2.25;;;27.30;59.10;;;;;;4997832;28;20022;-64
2023/06/06 08:15:48;;;;;;;2.33;2.05;;;27.30;58.70;;;;;;4998131;28;20337;-64
2023/06/06 08:18:14;;;;;;;3.10;2.20;;;27.30;58.70;;;;;;4998094;28;20027;-64
2023/06/06 08:20:40;;;;;;;2.70;2.50;;;27.30;58.50;;;;;;4998114;28;20031;-64
2023/06/06 08:23:06;;;;;;;2.45;2.25;;;27.40;58.50;;;;;;4996924;28;21686;-64
2023/06/06 08:25:37;;;;;;;3.28;2.47;;;27.40;58.40;;;;;;4998115;28;20081;-64
2023/06/06 08:28:03;;;;;;;3.80;2.67;;;27.50;58.40;;;;;;4997824;28;20022;-64
2023/06/06 08:30:29;;;;;;;3.42;2.20;;;27.60;58.30;;;;;;4998058;28;20439;-64
2023/06/06 08:32:55;;;;;;;4.20;2.10;;;27.70;58.30;;;;;;4997849;28;20043;-64
2023/06/06 08:35:22;;;;;;;2.50;2.25;;;27.70;58.00;;;;;;4998102;28;20068;-64
2023/06/06 08:37:48;;;;;;;2.38;2.17;;;27.70;57.90;;;;;;4997800;28;20458;-64
2023/06/06 08:40:14;;;;;;;2.35;2.05;;;27.70;57.60;;;;;;4996488;28;20037;-64
2023/06/06 08:42:50;;;;;;;2.40;2.05;;;27.60;57.60;;;;;;4997413;28;20022;-64
2023/06/06 08:45:20;;;;;;;2.95;2.10;;;27.60;57.30;;;;;;4997959;28;20027;-64
2023/06/06 08:47:48;;;;;;;2.22;2.00;;;27.70;57.30;;;;;;4997877;28;20033;-64
2023/06/06 08:50:15;;;;;;;2.63;2.42;;;27.80;57.00;;;;;;4997670;28;20165;-64
2023/06/06 08:52:42;;;;;;;2.80;2.25;;;27.90;57.20;;;;;;4997707;28;20034;-64
2023/06/06 08:55:09;;;;;;;3.17;2.80;;;28.00;56.90;;;;;;4997454;28;20038;-64
2023/06/06 08:57:41;;;;;;;3.97;2.53;;;28.00;56.30;;;;;;4996926;28;20048;-64
2023/06/06 09:00:11;;;;;;;2.40;2.20;;;27.90;55.80;;;;;;4996184;28;20034;-64
2023/06/06 09:02:41;;;;;;;3.13;2.30;;;27.90;55.90;;;;;;4997467;28;20092;-64
2023/06/06 09:05:11;;;;;;;2.60;2.25;;;27.80;56.00;;;;;;4996065;28;20051;-64
2023/06/06 09:07:38;;;;;;;3.00;2.58;;;27.70;56.20;;;;;;4997214;28;20444;-64
2023/06/06 09:10:06;;;;;;;3.17;2.55;;;27.60;56.20;;;;;;4997269;28;20027;-64
2023/06/06 09:12:42;;;;;;;3.10;2.38;;;27.60;56.10;;;;;;4996988;28;20101;-64
2023/06/06 09:15:09;;;;;;;3.55;2.60;;;27.70;55.60;;;;;;4997013;28;20031;-64
2023/06/06 09:17:39;;;;;;;3.00;2.50;;;27.70;55.70;;;;;;4997002;28;20062;-64
2023/06/06 09:20:13;;;;;;;3.17;2.55;;;27.80;55.60;;;;;;4997022;28;20117;-64
2023/06/06 09:22:40;;;;;;;3.67;2.67;;;27.80;55.40;;;;;;4997005;28;20054;-64
2023/06/06 09:25:17;;;;;;;5.88;2.50;;;27.80;55.50;;;;;;4996809;28;20037;-64
2023/06/06 09:27:44;;;;;;;3.80;2.55;;;27.90;55.40;;;;;;4996837;28;20073;-64
2023/06/06 09:30:20;;;;;;;2.63;2.35;;;28.00;55.60;;;;;;4996785;28;20110;-64
2023/06/06 09:32:51;;;;;;;3.83;2.92;;;28.20;55.40;;;;;;4997070;28;20152;-64
2023/06/06 09:35:17;;;;;;;4.32;2.72;;;28.40;55.30;;;;;;4996821;28;20080;-64
2023/06/06 09:37:45;;;;;;;3.72;2.55;;;28.50;55.20;;;;;;4996776;28;20034;-64
2023/06/06 09:40:15;;;;;;;2.83;2.38;;;28.60;55.10;;;;;;4996475;28;20444;-65
2023/06/06 09:42:43;;;;;;;5.05;2.90;;;28.70;55.00;;;;;;4996580;28;20363;-64
2023/06/06 09:45:20;;;;;;;3.50;2.67;;;28.90;54.50;;;;;;4996475;28;20022;-64
2023/06/06 09:47:47;;;;;;;3.90;2.53;;;28.90;54.30;;;;;;4996469;28;20113;-64
2023/06/06 09:50:15;;;;;;;4.97;2.90;;;28.80;53.80;;;;;;4996430;28;20487;-64
2023/06/06 09:52:42;;;;;;;2.80;2.22;;;28.60;53.80;;;;;;4995875;28;20089;-64
2023/06/06 09:55:09;;;;;;;3.90;2.75;;;28.40;53.80;;;;;;4995963;28;20038;-64
2023/06/06 09:57:37;;;;;;;2.60;2.17;;;28.40;53.90;;;;;;4996358;28;20397;-64
2023/06/06 10:00:14;;;;;;;2.47;2.15;;;28.40;54.10;;;;;;4996509;28;20029;-64
2023/06/06 10:02:43;;;;;;;3.45;2.42;;;28.40;53.90;;;;;;4996145;28;20034;-64
2023/06/06 10:05:14;;;;;;;2.88;2.50;;;28.10;53.60;;;;;;4995891;28;20046;-64
2023/06/06 10:07:41;;;;;;;3.30;2.60;;;28.00;54.00;;;;;;4996077;28;20102;-64
2023/06/06 10:10:13;;;;;;;5.40;3.10;;;27.90;54.20;;;;;;4995845;28;20022;-64
2023/06/06 10:12:40;;;;;;;2.65;2.15;;;27.70;54.40;;;;;;4996103;28;20068;-64
2023/06/06 10:15:09;;;;;;;4.00;2.83;;;27.50;54.50;;;;;;4995956;28;20038;-64
2023/06/06 10:17:39;;;;;;;4.30;3.00;;;27.30;54.60;;;;;;4995885;28;20030;-64
2023/06/06 10:20:06;;;;;;;5.82;3.70;;;27.00;55.00;;;;;;4994909;28;20478;-64
2023/06/06 10:22:34;;;;;;;3.65;3.10;;;26.80;55.60;;;;;;4995737;28;20429;-64
2023/06/06 10:25:06;;;;;;;3.53;2.85;;;26.70;55.80;;;;;;4995445;28;20106;-64
2023/06/06 10:27:59;;;;;;;4.35;3.03;;;26.60;56.20;;;;;;4995895;28;20030;-64
2023/06/06 10:30:43;;;;;;;3.83;2.80;;;26.50;56.30;;;;;;4995809;28;20066;-64
2023/06/06 10:33:41;;;;;;;2.90;2.60;;;26.50;56.30;;;;;;4995865;28;20291;-64
2023/06/06 10:36:09;;;;;;;3.88;2.95;;;26.60;56.40;;;;;;4995950;28;20559;-64
2023/06/06 10:38:36;;;;;;;3.70;2.75;;;26.60;56.70;;;;;;4995328;28;20499;-64
2023/06/06 10:41:15;;;;;;;7.72;4.50;;;26.60;56.80;;;;;;4995528;28;20030;-64
2023/06/06 10:43:41;;;;;;;6.05;3.90;;;26.70;56.60;;;;;;4995640;28;20022;-64
2023/06/06 10:46:08;;;;;;;4.05;3.20;;;26.60;56.50;;;;;;4995629;28;20082;-64
2023/06/06 10:48:42;;;;;;;6.30;4.38;;;26.40;56.70;;;;;;4995446;28;20034;-64
2023/06/06 10:51:36;;;;;;;5.75;4.32;;;26.40;56.60;;;;;;4995554;28;20037;-64
2023/06/06 10:54:27;;;;;;;5.57;3.70;;;26.50;56.10;;;;;;4995096;28;20057;-64
2023/06/06 10:56:55;;;;;;;5.63;3.83;;;26.40;56.40;;;;;;4994247;28;20042;-64
2023/06/06 10:59:34;;;;;;;6.30;3.80;;;26.50;56.90;;;;;;4995335;28;20077;-64
2023/06/06 11:02:00;;;;;;;6.90;3.55;;;26.60;56.70;;;;;;4995269;28;20117;-64
2023/06/06 11:04:27;;;;;;;5.93;4.18;;;26.50;56.90;;;;;;4998406;28;20434;-64
2023/06/06 11:07:00;;;;;;;5.45;4.20;;;26.50;57.00;;;;;;5001540;28;20393;-64
2023/06/06 11:09:30;;;;;;;6.82;5.13;;;26.60;57.20;;;;;;5001816;28;20109;-64
2023/06/06 11:12:14;;;;;;;9.25;5.38;;;26.60;57.00;;;;;;5001768;28;20109;-64
2023/06/06 11:14:58;;;;;;;9.75;5.38;;;26.70;56.70;;;;;;5001666;28;20034;-64
2023/06/06 11:17:32;;;;;;;6.72;4.57;;;26.80;56.20;;;;;;5001642;28;20037;-64
2023/06/06 11:20:01;;;;;;;8.82;5.63;;;26.80;56.30;;;;;;5001661;28;20034;-64
2023/06/06 11:22:28;;;;;;;6.95;4.07;;;26.80;55.20;;;;;;5001550;28;20034;-64
2023/06/06 11:24:57;;;;;;;5.57;3.90;;;26.60;55.00;;;;;;5001524;28;20034;-64
2023/06/06 11:27:23;;;;;;;5.85;4.22;;;26.50;55.50;;;;;;5000625;28;20022;-64
2023/06/06 11:29:53;;;;;;;4.63;3.35;;;26.50;55.20;;;;;;5001704;28;20352;-64
2023/06/06 11:32:19;;;;;;;6.22;4.22;;;26.50;55.30;;;;;;5001922;28;20062;-64
2023/06/06 11:34:45;;;;;;;5.03;3.88;;;26.50;55.50;;;;;;5001527;28;20061;-64
2023/06/06 11:37:11;;;;;;;5.85;3.72;;;26.60;55.50;;;;;;5001317;28;20109;-64
2023/06/06 11:39:37;;;;;;;3.58;2.63;;;26.80;55.40;;;;;;5001530;28;20467;-64
2023/06/06 11:42:03;;;;;;;3.42;2.38;;;26.80;55.00;;;;;;5001384;28;20033;-64
2023/06/06 11:44:35;;;;;;;3.05;2.10;;;26.90;54.00;;;;;;5001432;28;20018;-64
2023/06/06 11:47:03;;;;;;;2.10;1.83;;;26.80;54.30;;;;;;5001764;28;20041;-64
2023/06/06 11:49:44;;;;;;;3.70;2.20;;;26.80;54.20;;;;;;5000478;28;20038;-64
2023/06/06 11:52:13;;;;;;;2.50;2.15;;;26.90;53.90;;;;;;5001465;28;20113;-64
2023/06/06 11:54:40;;;;;;;2.92;2.40;;;27.00;54.00;;;;;;5001437;28;20018;-64
2023/06/06 11:57:08;;;;;;;3.63;2.53;;;27.00;53.80;;;;;;5001302;28;20069;-64
2023/06/06 11:59:37;;;;;;;4.20;2.78;;;27.00;53.90;;;;;;4984347;28;20027;-64
2023/06/06 12:02:03;;;;;;;3.30;2.60;;;27.10;54.10;;;;;;5001177;28;20363;-64
2023/06/06 12:04:30;;;;;;;3.35;2.60;;;27.00;54.20;;;;;;4999752;28;20047;-65
2023/06/06 12:07:05;;;;;;;2.55;2.33;;;27.10;54.20;;;;;;5001384;28;20026;-64
2023/06/06 12:09:32;;;;;;;4.43;2.97;;;27.20;54.30;;;;;;5001255;28;20031;-64
2023/06/06 12:12:02;;;;;;;5.05;3.15;;;27.20;54.10;;;;;;5000266;28;20026;-64
2023/06/06 12:14:30;;;;;;;5.13;3.40;;;27.30;53.90;;;;;;5001229;28;20355;-64
2023/06/06 12:17:29;;;;;;;4.28;3.50;;;27.40;53.60;;;;;;4997648;28;20030;-64
2023/06/06 12:19:56;;;;;;;5.18;3.90;;;27.30;52.30;;;;;;4976532;28;20178;-64
2023/06/06 12:22:32;;;;;;;5.20;4.00;;;27.20;53.50;;;;;;4976817;28;20093;-64
2023/06/06 12:24:58;;;;;;;5.68;4.07;;;27.10;53.10;;;;;;4976814;28;20101;-64
2023/06/06 12:27:30;;;;;;;5.65;3.90;;;27.00;53.60;;;;;;4976780;28;20079;-64
2023/06/06 12:29:57;;;;;;;7.47;3.80;;;26.90;53.80;;;;;;4976802;28;20035;-64
2023/06/06 12:32:26;;;;;;;6.43;3.95;;;26.70;54.50;;;;;;4976635;28;20037;-64
2023/06/06 12:35:02;;;;;;;5.63;3.95;;;26.40;54.90;;;;;;4976448;28;20042;-64
2023/06/06 12:37:42;;;;;;;5.15;3.40;;;26.30;55.40;;;;;;4976640;28;20042;-64
2023/06/06 12:40:14;;;;;;;4.00;3.28;;;26.20;56.20;;;;;;4976459;28;20066;-64
2023/06/06 12:42:41;;;;;;;4.00;3.28;;;26.10;56.50;;;;;;4976606;28;20177;-64
2023/06/06 12:45:08;;;;;;;3.78;2.50;;;26.00;56.70;;;;;;4960120;28;20034;-64
2023/06/06 12:47:35;;;;;;;3.33;2.60;;;25.90;56.80;;;;;;4976385;28;20031;-63
2023/06/06 12:50:01;;;;;;;3.53;2.50;;;25.80;57.10;;;;;;4976069;28;20372;-63
2023/06/06 12:52:27;;;;;;;3.15;2.10;;;25.60;57.80;;;;;;4976312;28;20031;-64
2023/06/06 12:54:53;;;;;;;3.58;2.60;;;25.40;58.90;;;;;;4976300;28;20154;-64